createdAt,value
2023-04-04T00:00:01.023Z,0.9
2023-04-04T00:01:00.610Z,0.8
2023-04-04T00:02:01.168Z,0.8
2023-04-04T00:03:00.834Z,0.8
2023-04-04T00:04:01.363Z,0.8
2023-04-04T00:05:01.006Z,0.8
2023-04-04T00:06:00.602Z,0.9
2023-04-04T00:07:01.186Z,0.9
2023-04-04T00:08:00.787Z,0.9
2023-04-04T00:09:01.377Z,0.8
2023-04-04T00:10:01.052Z,0.9
2023-04-04T00:11:00.563Z,0.8
2023-04-04T00:12:01.160Z,0.8
2023-04-04T00:13:00.750Z,0.8
2023-04-04T00:14:01.331Z,0.9
2023-04-04T00:15:00.914Z,0.9
2023-04-04T00:16:01.492Z,0.9
2023-04-04T00:17:01.126Z,0.9
2023-04-04T00:18:00.740Z,0.9
2023-04-04T00:19:01.322Z,1.1
2023-04-04T00:20:00.921Z,1
2023-04-04T00:21:01.540Z,1.1
2023-04-04T00:22:01.167Z,1
2023-04-04T00:23:00.817Z,1
2023-04-04T00:24:01.344Z,1
2023-04-04T00:25:00.938Z,1
2023-04-04T00:26:01.519Z,1.1
2023-04-04T00:27:01.135Z,1.1
2023-04-04T00:28:01.165Z,0.9
2023-04-04T00:29:00.937Z,1
2023-04-04T00:30:01.522Z,1
2023-04-04T00:31:01.125Z,0.9
2023-04-04T00:32:00.719Z,0.8
2023-04-04T00:33:01.360Z,0.9
2023-04-04T00:34:00.967Z,0.9
2023-04-04T00:35:01.525Z,0.8
2023-04-04T00:36:01.138Z,0.8
2023-04-04T00:37:00.761Z,0.8
2023-04-04T00:38:01.362Z,0.8
2023-04-04T00:39:00.968Z,0.8
2023-04-04T00:40:01.525Z,0.8
2023-04-04T00:41:01.131Z,0.8
2023-04-04T00:42:00.723Z,0.8
2023-04-04T00:43:01.305Z,0.7
2023-04-04T00:44:00.897Z,0.7
2023-04-04T00:45:01.517Z,0.8
2023-04-04T00:46:01.148Z,0.7
2023-04-04T00:47:00.721Z,0.6
2023-04-04T00:48:01.308Z,0.6
2023-04-04T00:49:00.918Z,0.5
2023-04-04T00:50:01.516Z,0.5
2023-04-04T00:51:01.126Z,0.5
2023-04-04T00:52:00.715Z,0.5
2023-04-04T00:53:01.321Z,0.4
2023-04-04T00:54:00.962Z,0.4
2023-04-04T00:55:01.519Z,0.3
2023-04-04T00:56:01.147Z,0.3
2023-04-04T00:57:00.733Z,0.1
2023-04-04T00:58:01.319Z,0.1
2023-04-04T00:59:00.982Z,0.1
2023-04-04T01:00:01.498Z,0
2023-04-04T01:01:01.153Z,-0.1
2023-04-04T01:02:00.841Z,-0.2
2023-04-04T01:03:01.357Z,-0.2
2023-04-04T01:04:01.001Z,-0.2
2023-04-04T01:05:00.570Z,-0.3
2023-04-04T01:06:01.178Z,-0.4
2023-04-04T01:07:00.762Z,-0.5
2023-04-04T01:08:01.345Z,-0.6
2023-04-04T01:09:00.941Z,-0.6
2023-04-04T01:10:01.573Z,-0.6
2023-04-04T01:11:01.264Z,-0.6
2023-04-04T01:12:00.770Z,-0.6
2023-04-04T01:13:01.341Z,-0.6
2023-04-04T01:14:00.950Z,-0.6
2023-04-04T01:15:01.510Z,-0.7
2023-04-04T01:16:01.100Z,-0.7
2023-04-04T01:17:00.700Z,-0.7
2023-04-04T01:18:01.298Z,-0.7
2023-04-04T01:19:00.966Z,-0.7
2023-04-04T01:20:01.525Z,-0.7
2023-04-04T01:21:01.111Z,-0.7
2023-04-04T01:22:00.709Z,-0.8
2023-04-04T01:23:01.278Z,-0.8
2023-04-04T01:24:00.895Z,-0.8
2023-04-04T01:25:01.467Z,-0.8
2023-04-04T01:26:01.085Z,-0.9
2023-04-04T01:27:00.630Z,-0.9
2023-04-04T01:28:01.229Z,-1
2023-04-04T01:29:00.843Z,-1
2023-04-04T01:30:01.392Z,-0.9
2023-04-04T01:31:01.069Z,-0.8
2023-04-04T01:32:00.596Z,-0.8
2023-04-04T01:33:01.214Z,-0.8
2023-04-04T01:34:00.850Z,-0.7
2023-04-04T01:35:01.416Z,-0.7
2023-04-04T01:36:01.028Z,-0.7
2023-04-04T01:37:00.597Z,-0.7
2023-04-04T01:38:01.187Z,-0.7
2023-04-04T01:39:00.781Z,-0.9
2023-04-04T01:40:01.375Z,-0.9
2023-04-04T01:41:01.113Z,-0.8
2023-04-04T01:42:00.589Z,-0.9
2023-04-04T01:43:01.120Z,-0.9
2023-04-04T01:44:00.709Z,-0.9
2023-04-04T01:45:01.295Z,-0.9
2023-04-04T01:46:00.924Z,-0.9
2023-04-04T01:47:01.493Z,-0.7
2023-04-04T01:48:01.096Z,-0.7
2023-04-04T01:49:00.701Z,-0.6
2023-04-04T01:50:01.288Z,-0.6
2023-04-04T01:51:00.875Z,-0.6
2023-04-04T01:52:01.461Z,-0.5
2023-04-04T01:53:01.051Z,-0.7
2023-04-04T01:54:00.650Z,-0.7
2023-04-04T01:55:01.231Z,-0.7
2023-04-04T01:56:00.832Z,-1
2023-04-04T01:57:01.431Z,-1
2023-04-04T01:58:01.105Z,-1
2023-04-04T01:59:00.663Z,-1
2023-04-04T02:00:01.231Z,-0.9
2023-04-04T02:01:00.876Z,-0.9
2023-04-04T02:02:01.474Z,-0.9
2023-04-04T02:03:01.100Z,-0.9
2023-04-04T02:04:00.729Z,-0.9
2023-04-04T02:05:01.260Z,-0.9
2023-04-04T02:06:00.863Z,-0.9
2023-04-04T02:07:01.424Z,-0.9
2023-04-04T02:08:01.010Z,-0.9
2023-04-04T02:09:00.642Z,-0.8
2023-04-04T02:10:01.180Z,-0.8
2023-04-04T02:11:00.798Z,-0.8
2023-04-04T02:12:01.354Z,-0.8
2023-04-04T02:13:00.941Z,-0.8
2023-04-04T02:14:01.563Z,-0.8
2023-04-04T02:15:01.156Z,-0.8
2023-04-04T02:16:00.832Z,-0.9
2023-04-04T02:17:01.325Z,-1.1
2023-04-04T02:18:02.067Z,-1.2
2023-04-04T02:19:00.876Z,-1.1
2023-04-04T02:20:01.105Z,-1.1
2023-04-04T02:21:00.690Z,-1.1
2023-04-04T02:22:01.284Z,-1.2
2023-04-04T02:23:00.870Z,-1.2
2023-04-04T02:24:01.479Z,-1.3
2023-04-04T02:25:01.067Z,-1.2
2023-04-04T02:26:00.656Z,-1.2
2023-04-04T02:27:01.225Z,-1.1
2023-04-04T02:28:00.819Z,-1.2
2023-04-04T02:29:01.425Z,-1.1
2023-04-04T02:30:01.075Z,-1.2
2023-04-04T02:31:00.644Z,-1.2
2023-04-04T02:32:01.198Z,-1.2
2023-04-04T02:33:00.804Z,-1.1
2023-04-04T02:34:01.359Z,-1.2
2023-04-04T02:35:00.964Z,-1.2
2023-04-04T02:36:01.563Z,-1.2
2023-04-04T02:37:01.172Z,-1.1
2023-04-04T02:38:00.771Z,-1.1
2023-04-04T02:39:01.353Z,-1.1
2023-04-04T02:40:00.980Z,-1.1
2023-04-04T02:41:00.574Z,-1.1
2023-04-04T02:42:01.125Z,-1.1
2023-04-04T02:43:00.717Z,-1.1
2023-04-04T02:44:01.296Z,-1.1
2023-04-04T02:45:00.893Z,-1.2
2023-04-04T02:46:08.073Z,-1.2
2023-04-04T02:47:01.065Z,-1.2
2023-04-04T02:48:00.770Z,-1.3
2023-04-04T02:49:01.324Z,-1.2
2023-04-04T02:50:00.912Z,-1.2
2023-04-04T02:51:01.520Z,-1.3
2023-04-04T02:52:01.111Z,-1.3
2023-04-04T02:53:00.698Z,-1.2
2023-04-04T02:54:01.287Z,-1.2
2023-04-04T02:55:00.872Z,-1.4
2023-04-04T02:56:01.476Z,-1.5
2023-04-04T02:57:01.074Z,-1.5
2023-04-04T02:58:00.682Z,-1.4
2023-04-04T02:59:01.272Z,-1.4
2023-04-04T03:00:00.896Z,-1.5
2023-04-04T03:01:01.541Z,-1.6
2023-04-04T03:02:01.211Z,-1.5
2023-04-04T03:03:00.770Z,-1.4
2023-04-04T03:04:01.367Z,-1.3
2023-04-04T03:05:00.937Z,-1.4
2023-04-04T03:06:01.519Z,-1.3
2023-04-04T03:07:01.126Z,-1.4
2023-04-04T03:08:00.744Z,-1.3
2023-04-04T03:09:01.346Z,-1.4
2023-04-04T03:10:00.941Z,-1.4
2023-04-04T03:11:01.535Z,-1.5
2023-04-04T03:12:01.181Z,-1.5
2023-04-04T03:13:00.774Z,-1.4
2023-04-04T03:14:01.381Z,-1.5
2023-04-04T03:15:00.974Z,-1.5
2023-04-04T03:16:00.568Z,-1.4
2023-04-04T03:17:01.135Z,-1.4
2023-04-04T03:18:01.072Z,-1.5
2023-04-04T03:19:01.321Z,-1.6
2023-04-04T03:20:01.108Z,-1.7
2023-04-04T03:21:01.512Z,-1.6
2023-04-04T03:22:01.194Z,-1.6
2023-04-04T03:23:00.733Z,-1.5
2023-04-04T03:24:01.363Z,-1.4
2023-04-04T03:25:00.960Z,-1.5
2023-04-04T03:26:00.560Z,-1.5
2023-04-04T03:27:01.145Z,-1.4
2023-04-04T03:28:00.741Z,-1.4
2023-04-04T03:29:01.329Z,-1.5
2023-04-04T03:30:00.914Z,-1.6
2023-04-04T03:31:01.536Z,-1.7
2023-04-04T03:32:01.123Z,-1.6
2023-04-04T03:33:00.746Z,-1.7
2023-04-04T03:34:01.353Z,-1.7
2023-04-04T03:35:00.949Z,-1.8
2023-04-04T03:36:01.563Z,-1.7
2023-04-04T03:37:01.164Z,-1.7
2023-04-04T03:38:00.747Z,-1.7
2023-04-04T03:39:01.346Z,-1.7
2023-04-04T03:40:00.956Z,-1.9
2023-04-04T03:41:00.537Z,-1.9
2023-04-04T03:42:01.139Z,-1.9
2023-04-04T03:43:00.729Z,-1.9
2023-04-04T03:44:01.307Z,-1.9
2023-04-04T03:45:00.916Z,-1.9
2023-04-04T03:46:01.504Z,-1.9
2023-04-04T03:47:01.112Z,-1.9
2023-04-04T03:48:00.755Z,-1.9
2023-04-04T03:49:01.289Z,-2.1
2023-04-04T03:50:00.929Z,-2.2
2023-04-04T03:51:01.474Z,-2.2
2023-04-04T03:52:01.066Z,-2.2
2023-04-04T03:53:00.698Z,-2.2
2023-04-04T03:54:01.242Z,-2.2
2023-04-04T03:55:00.855Z,-2
2023-04-04T03:56:01.458Z,-1.9
2023-04-04T03:57:01.057Z,-1.9
2023-04-04T03:58:00.633Z,-1.9
2023-04-04T03:59:01.258Z,-1.8
2023-04-04T04:00:00.895Z,-1.7
2023-04-04T04:01:01.468Z,-1.8
2023-04-04T04:02:01.053Z,-1.8
2023-04-04T04:03:00.728Z,-1.7
2023-04-04T04:04:01.246Z,-1.8
2023-04-04T04:05:00.893Z,-1.7
2023-04-04T04:06:01.479Z,-1.8
2023-04-04T04:07:01.100Z,-1.7
2023-04-04T04:08:00.652Z,-1.7
2023-04-04T04:09:01.239Z,-1.7
2023-04-04T04:10:00.826Z,-1.7
2023-04-04T04:11:01.413Z,-1.7
2023-04-04T04:12:01.024Z,-1.7
2023-04-04T04:13:00.641Z,-1.7
2023-04-04T04:14:01.160Z,-1.8
2023-04-04T04:15:00.764Z,-1.8
2023-04-04T04:16:01.342Z,-1.8
2023-04-04T04:17:00.991Z,-1.8
2023-04-04T04:18:00.609Z,-1.8
2023-04-04T04:19:01.140Z,-1.9
2023-04-04T04:20:00.748Z,-2.1
2023-04-04T04:21:01.312Z,-2
2023-04-04T04:22:00.928Z,-2
2023-04-04T04:23:01.506Z,-2
2023-04-04T04:24:01.107Z,-2.1
2023-04-04T04:25:00.709Z,-2.1
2023-04-04T04:26:01.283Z,-2
2023-04-04T04:27:00.896Z,-2
2023-04-04T04:28:01.494Z,-2
2023-04-04T04:29:01.088Z,-2
2023-04-04T04:30:00.684Z,-2
2023-04-04T04:31:01.267Z,-1.9
2023-04-04T04:32:01.023Z,-1.9
2023-04-04T04:33:01.495Z,-1.9
2023-04-04T04:34:01.121Z,-2
2023-04-04T04:35:00.697Z,-2
2023-04-04T04:36:01.781Z,-2
2023-04-04T04:37:00.648Z,-2
2023-04-04T04:38:01.300Z,-2
2023-04-04T04:39:00.895Z,-2
2023-04-04T04:40:01.470Z,-2.1
2023-04-04T04:41:01.074Z,-2.1
2023-04-04T04:42:00.660Z,-2.1
2023-04-04T04:43:01.247Z,-2
2023-04-04T04:44:00.871Z,-2.1
2023-04-04T04:45:01.412Z,-2.1
2023-04-04T04:46:01.036Z,-2.1
2023-04-04T04:47:00.687Z,-2.2
2023-04-04T04:48:01.191Z,-2.2
2023-04-04T04:49:00.847Z,-2.2
2023-04-04T04:50:01.406Z,-2.2
2023-04-04T04:51:01.030Z,-2.2
2023-04-04T04:52:00.715Z,-2.2
2023-04-04T04:53:01.193Z,-2.3
2023-04-04T04:54:00.841Z,-2.3
2023-04-04T04:55:01.390Z,-2.3
2023-04-04T04:56:01.035Z,-2.3
2023-04-04T04:57:00.618Z,-2.2
2023-04-04T04:58:01.206Z,-2.2
2023-04-04T04:59:00.804Z,-2.2
2023-04-04T05:00:01.425Z,-2.2
2023-04-04T05:01:01.044Z,-2.2
2023-04-04T05:02:00.612Z,-2.2
2023-04-04T05:03:01.179Z,-2.2
2023-04-04T05:04:00.785Z,-2.1
2023-04-04T05:05:01.376Z,-2.2
2023-04-04T05:06:00.983Z,-2.1
2023-04-04T05:07:00.553Z,-2.1
2023-04-04T05:08:01.124Z,-2.2
2023-04-04T05:09:00.724Z,-2.2
2023-04-04T05:10:01.317Z,-2.2
2023-04-04T05:11:01.305Z,-2.2
2023-04-04T05:12:01.444Z,-2.2
2023-04-04T05:13:01.076Z,-2.1
2023-04-04T05:14:00.701Z,-2.1
2023-04-04T05:15:01.295Z,-2.1
2023-04-04T05:16:00.902Z,-2
2023-04-04T05:17:01.521Z,-2
2023-04-04T05:18:01.238Z,-1.9
2023-04-04T05:19:00.716Z,-1.8
2023-04-04T05:20:01.367Z,-1.9
2023-04-04T05:21:00.957Z,-1.8
2023-04-04T05:22:00.685Z,-1.7
2023-04-04T05:23:01.118Z,-1.7
2023-04-04T05:24:00.706Z,-1.7
2023-04-04T05:25:01.292Z,-1.6
2023-04-04T05:26:00.903Z,-1.6
2023-04-04T05:27:01.463Z,-1.6
2023-04-04T05:28:01.125Z,-1.5
2023-04-04T05:29:00.702Z,-1.5
2023-04-04T05:30:01.275Z,-1.5
2023-04-04T05:31:00.874Z,-1.4
2023-04-04T05:32:01.493Z,-1.3
2023-04-04T05:33:01.154Z,-1.3
2023-04-04T05:34:00.691Z,-1.2
2023-04-04T05:35:01.383Z,-1.2
2023-04-04T05:36:01.016Z,-1.2
2023-04-04T05:37:01.524Z,-1.2
2023-04-04T05:38:01.138Z,-1.1
2023-04-04T05:39:00.734Z,-1
2023-04-04T05:40:01.344Z,-0.8
2023-04-04T05:41:00.937Z,-0.9
2023-04-04T05:42:01.547Z,-1
2023-04-04T05:43:01.145Z,-0.9
2023-04-04T05:44:00.747Z,-0.8
2023-04-04T05:45:01.347Z,-0.8
2023-04-04T05:46:00.968Z,-0.7
2023-04-04T05:47:00.540Z,-0.7
2023-04-04T05:48:01.186Z,-0.7
2023-04-04T05:49:00.801Z,-0.7
2023-04-04T05:50:01.346Z,-0.6
2023-04-04T05:51:00.967Z,-0.6
2023-04-04T05:52:01.554Z,-0.6
2023-04-04T05:53:01.153Z,-0.6
2023-04-04T05:54:00.746Z,-0.6
2023-04-04T05:55:01.321Z,-0.5
2023-04-04T05:56:00.909Z,-0.5
2023-04-04T05:57:01.514Z,-0.5
2023-04-04T05:58:01.146Z,-0.5
2023-04-04T05:59:00.756Z,-0.4
2023-04-04T06:00:01.324Z,-0.4
2023-04-04T06:01:00.930Z,-0.4
2023-04-04T06:02:01.536Z,-0.3
2023-04-04T06:03:01.254Z,-0.3
2023-04-04T06:04:00.787Z,-0.2
2023-04-04T06:05:01.341Z,-0.1
2023-04-04T06:06:00.972Z,0
2023-04-04T06:07:01.546Z,0
2023-04-04T06:08:01.138Z,0
2023-04-04T06:09:00.732Z,0.1
2023-04-04T06:10:01.317Z,0.1
2023-04-04T06:11:00.920Z,0.2
2023-04-04T06:12:01.518Z,0.1
2023-04-04T06:13:01.131Z,0.2
2023-04-04T06:14:00.787Z,0.1
2023-04-04T06:15:01.315Z,0.1
2023-04-04T06:16:00.917Z,0.2
2023-04-04T06:17:01.482Z,0.2
2023-04-04T06:18:01.103Z,0.2
2023-04-04T06:19:00.725Z,0.1
2023-04-04T06:20:01.302Z,0.1
2023-04-04T06:21:00.893Z,0.2
2023-04-04T06:22:01.483Z,0.2
2023-04-04T06:23:01.096Z,0.2
2023-04-04T06:24:00.697Z,0.2
2023-04-04T06:25:01.287Z,0.3
2023-04-04T06:26:00.878Z,0.3
2023-04-04T06:27:01.465Z,0.3
2023-04-04T06:28:01.067Z,0.3
2023-04-04T06:29:00.673Z,0.4
2023-04-04T06:30:01.295Z,0.4
2023-04-04T06:31:00.937Z,0.4
2023-04-04T06:32:01.491Z,0.4
2023-04-04T06:33:01.078Z,0.5
2023-04-04T06:34:00.726Z,0.5
2023-04-04T06:35:01.290Z,0.6
2023-04-04T06:36:00.909Z,0.7
2023-04-04T06:37:01.479Z,0.8
2023-04-04T06:38:01.072Z,0.8
2023-04-04T06:39:00.681Z,0.8
2023-04-04T06:40:01.259Z,0.8
2023-04-04T06:41:00.845Z,0.8
2023-04-04T06:42:01.431Z,0.8
2023-04-04T06:43:01.039Z,0.8
2023-04-04T06:44:00.641Z,0.8
2023-04-04T06:45:01.222Z,0.9
2023-04-04T06:46:00.837Z,0.9
2023-04-04T06:47:01.472Z,0.9
2023-04-04T06:48:01.119Z,0.9
2023-04-04T06:49:00.631Z,1
2023-04-04T06:50:01.247Z,1
2023-04-04T06:51:00.847Z,1.1
2023-04-04T06:52:01.431Z,1.1
2023-04-04T06:53:01.028Z,1.1
2023-04-04T06:54:00.596Z,1.1
2023-04-04T06:55:01.195Z,1
2023-04-04T06:56:00.785Z,1
2023-04-04T06:57:01.377Z,1
2023-04-04T06:58:00.975Z,0.9
2023-04-04T06:59:00.567Z,1
2023-04-04T07:00:01.174Z,1
2023-04-04T07:01:00.823Z,1.1
2023-04-04T07:02:01.412Z,1.1
2023-04-04T07:03:01.040Z,1.1
2023-04-04T07:04:00.618Z,1.1
2023-04-04T07:05:01.176Z,1.1
2023-04-04T07:06:00.805Z,1.1
2023-04-04T07:07:01.376Z,1.1
2023-04-04T07:08:01.120Z,1.2
2023-04-04T07:09:00.564Z,1.3
2023-04-04T07:10:01.165Z,1.4
2023-04-04T07:11:00.784Z,1.3
2023-04-04T07:12:01.367Z,1.4
2023-04-04T07:13:01.004Z,1.6
2023-04-04T07:14:00.632Z,1.6
2023-04-04T07:15:01.166Z,1.7
2023-04-04T07:16:00.755Z,1.7
2023-04-04T07:17:03.653Z,1.7
2023-04-04T07:18:00.931Z,1.7
2023-04-04T07:19:00.557Z,1.8
2023-04-04T07:20:02.914Z,1.8
2023-04-04T07:21:00.695Z,2
2023-04-04T07:22:01.305Z,1.9
2023-04-04T07:23:00.898Z,1.9
2023-04-04T07:24:01.485Z,2
2023-04-04T07:25:01.077Z,2.1
2023-04-04T07:26:00.678Z,2.1
2023-04-04T07:27:01.287Z,2.1
2023-04-04T07:28:09.903Z,2.2
2023-04-04T07:29:01.423Z,2.2
2023-04-04T07:30:01.035Z,2.2
2023-04-04T07:31:00.646Z,2.3
2023-04-04T07:32:01.270Z,2.4
2023-04-04T07:33:00.931Z,2.4
2023-04-04T07:34:01.514Z,2.5
2023-04-04T07:35:01.106Z,2.5
2023-04-04T07:36:00.723Z,2.5
2023-04-04T07:37:01.289Z,2.7
2023-04-04T07:38:00.900Z,2.7
2023-04-04T07:39:01.501Z,2.6
2023-04-04T07:40:01.095Z,2.7
2023-04-04T07:41:02.435Z,2.8
2023-04-04T07:42:01.229Z,2.8
2023-04-04T07:43:00.819Z,2.8
2023-04-04T07:44:01.422Z,2.8
2023-04-04T07:45:01.052Z,2.9
2023-04-04T07:46:00.623Z,2.9
2023-04-04T07:47:09.072Z,3.1
2023-04-04T07:48:00.779Z,3.2
2023-04-04T07:49:01.387Z,3.3
2023-04-04T07:50:01.042Z,3.4
2023-04-04T07:51:00.565Z,3.4
2023-04-04T07:52:01.150Z,3.5
2023-04-04T07:53:00.736Z,3.6
2023-04-04T07:54:01.346Z,3.5
2023-04-04T07:55:00.968Z,3.6
2023-04-04T07:56:00.549Z,3.5
2023-04-04T07:57:01.149Z,3.6
2023-04-04T07:58:00.756Z,3.7
2023-04-04T07:59:01.377Z,3.7
2023-04-04T08:00:01.003Z,3.8
2023-04-04T08:01:00.598Z,3.8
2023-04-04T08:02:01.164Z,3.9
2023-04-04T08:03:00.778Z,3.8
2023-04-04T08:04:01.442Z,3.8
2023-04-04T08:05:01.012Z,3.9
2023-04-04T08:06:00.670Z,3.8
2023-04-04T08:07:01.174Z,3.9
2023-04-04T08:08:00.777Z,4.1
2023-04-04T08:09:01.358Z,4.3
2023-04-04T08:10:00.956Z,4.3
2023-04-04T08:11:00.695Z,4.3
2023-04-04T08:12:01.161Z,4.3
2023-04-04T08:13:00.761Z,4.4
2023-04-04T08:14:01.360Z,4.4
2023-04-04T08:15:00.998Z,4.4
2023-04-04T08:16:00.555Z,4.3
2023-04-04T08:17:01.116Z,4.3
2023-04-04T08:18:00.743Z,4.4
2023-04-04T08:19:01.313Z,4.4
2023-04-04T08:20:00.907Z,4.3
2023-04-04T08:21:01.492Z,4.4
2023-04-04T08:22:01.103Z,4.5
2023-04-04T08:23:00.714Z,4.4
2023-04-04T08:24:01.312Z,4.4
2023-04-04T08:25:01.032Z,4.3
2023-04-04T08:26:01.495Z,4.3
2023-04-04T08:27:05.486Z,4.3
2023-04-04T08:28:00.671Z,4.3
2023-04-04T08:29:01.293Z,4.4
2023-04-04T08:30:00.889Z,4.6
2023-04-04T08:31:01.521Z,4.7
2023-04-04T08:32:01.160Z,4.6
2023-04-04T08:33:00.718Z,4.7
2023-04-04T08:34:01.329Z,4.7
2023-04-04T08:35:00.960Z,4.6
2023-04-04T08:36:00.554Z,4.5
2023-04-04T08:37:01.138Z,4.5
2023-04-04T08:38:00.753Z,4.5
2023-04-04T08:39:01.318Z,4.5
2023-04-04T08:40:00.921Z,4.5
2023-04-04T08:41:01.506Z,4.5
2023-04-04T08:42:01.131Z,4.5
2023-04-04T08:43:00.717Z,4.6
2023-04-04T08:44:01.319Z,4.6
2023-04-04T08:45:00.908Z,4.6
2023-04-04T08:46:01.510Z,4.6
2023-04-04T08:47:01.225Z,4.7
2023-04-04T08:48:00.752Z,4.8
2023-04-04T08:49:01.308Z,4.8
2023-04-04T08:50:00.924Z,4.8
2023-04-04T08:51:01.533Z,4.7
2023-04-04T08:52:01.130Z,4.7
2023-04-04T08:53:00.731Z,4.7
2023-04-04T08:54:01.485Z,4.8
2023-04-04T08:55:00.964Z,4.6
2023-04-04T08:56:00.568Z,4.5
2023-04-04T08:57:01.133Z,4.6
2023-04-04T08:58:00.726Z,4.7
2023-04-04T08:59:01.334Z,4.7
2023-04-04T09:00:01.032Z,4.7
2023-04-04T09:01:00.591Z,4.8
2023-04-04T09:02:01.425Z,5
2023-04-04T09:03:00.881Z,4.8
2023-04-04T09:04:01.378Z,4.7
2023-04-04T09:05:06.034Z,4.7
2023-04-04T09:06:01.527Z,4.7
2023-04-04T09:07:01.143Z,4.7
2023-04-04T09:08:00.769Z,4.9
2023-04-04T09:09:01.361Z,4.8
2023-04-04T09:10:00.977Z,4.7
2023-04-04T09:11:00.533Z,4.7
2023-04-04T09:12:01.142Z,4.5
2023-04-04T09:13:08.908Z,4.6
2023-04-04T09:14:01.277Z,4.6
2023-04-04T09:15:00.876Z,4.9
2023-04-04T09:16:01.507Z,4.9
2023-04-04T09:17:01.146Z,4.9
2023-04-04T09:18:00.728Z,5
2023-04-04T09:19:01.280Z,5.1
2023-04-04T09:20:00.866Z,5.2
2023-04-04T09:21:01.462Z,5.1
2023-04-04T09:22:01.069Z,5.1
2023-04-04T09:23:00.656Z,5.1
2023-04-04T09:24:01.309Z,5
2023-04-04T09:25:00.878Z,5
2023-04-04T09:26:04.251Z,5.2
2023-04-04T09:27:01.023Z,5.2
2023-04-04T09:28:00.628Z,5.2
2023-04-04T09:29:01.198Z,5.2
2023-04-04T09:30:01.312Z,5.3
2023-04-04T09:31:00.836Z,5.3
2023-04-04T09:32:01.468Z,5.3
2023-04-04T09:33:01.140Z,5.2
2023-04-04T09:34:00.762Z,5.3
2023-04-04T09:35:01.441Z,5.3
2023-04-04T09:36:01.035Z,5.3
2023-04-04T09:37:00.588Z,5.4
2023-04-04T09:38:01.183Z,5.4
2023-04-04T09:39:00.846Z,5.4
2023-04-04T09:40:01.448Z,5.3
2023-04-04T09:41:01.080Z,5.5
2023-04-04T09:42:00.727Z,5.5
2023-04-04T09:43:01.235Z,5.4
2023-04-04T09:44:00.843Z,5.4
2023-04-04T09:45:01.422Z,5.3
2023-04-04T09:46:01.037Z,5.2
2023-04-04T09:47:00.612Z,5.2
2023-04-04T09:48:01.273Z,5.3
2023-04-04T09:49:00.863Z,5.2
2023-04-04T09:50:01.670Z,5.3
2023-04-04T09:51:01.088Z,5.3
2023-04-04T09:52:00.677Z,5.2
2023-04-04T09:53:01.264Z,5.3
2023-04-04T09:54:00.887Z,5.4
2023-04-04T09:55:01.489Z,5.4
2023-04-04T09:56:01.145Z,5.4
2023-04-04T09:57:00.668Z,5.5
2023-04-04T09:58:01.289Z,5.5
2023-04-04T09:59:04.244Z,5.5
2023-04-04T10:00:01.522Z,5.5
2023-04-04T10:01:01.202Z,5.6
2023-04-04T10:02:00.783Z,5.7
2023-04-04T10:03:01.311Z,5.6
2023-04-04T10:04:00.939Z,5.6
2023-04-04T10:06:01.050Z,5.8
2023-04-04T10:07:00.663Z,5.9
2023-04-04T10:08:01.228Z,5.9
2023-04-04T10:09:00.829Z,5.8
2023-04-04T10:10:01.417Z,6
2023-04-04T10:11:09.389Z,6
2023-04-04T10:12:00.546Z,6.1
2023-04-04T10:13:01.146Z,6.1
2023-04-04T10:14:00.819Z,6.1
2023-04-04T10:15:01.358Z,6
2023-04-04T10:16:01.007Z,6.1
2023-04-04T10:17:00.611Z,6
2023-04-04T10:18:01.154Z,5.8
2023-04-04T10:19:00.808Z,5.8
2023-04-04T10:20:01.352Z,5.9
2023-04-04T10:21:08.107Z,5.8
2023-04-04T10:22:01.528Z,5.6
2023-04-04T10:23:01.131Z,5.6
2023-04-04T10:24:00.735Z,5.7
2023-04-04T10:25:01.313Z,5.6
2023-04-04T10:26:00.924Z,5.6
2023-04-04T10:27:01.526Z,5.7
2023-04-04T10:28:01.142Z,5.8
2023-04-04T10:29:00.828Z,5.8
2023-04-04T10:30:01.346Z,5.7
2023-04-04T10:31:06.538Z,5.7
2023-04-04T10:32:01.555Z,5.8
2023-04-04T10:33:01.237Z,5.9
2023-04-04T10:34:00.770Z,6.1
2023-04-04T10:35:01.353Z,6.1
2023-04-04T10:36:00.998Z,6.2
2023-04-04T10:37:00.554Z,6.1
2023-04-04T10:38:01.471Z,6.1
2023-04-04T10:39:00.817Z,6.1
2023-04-04T10:40:01.372Z,6
2023-04-04T10:41:00.972Z,6
2023-04-04T10:42:00.563Z,6
2023-04-04T10:43:01.129Z,6.1
2023-04-04T10:44:00.732Z,6.3
2023-04-04T10:45:09.339Z,6.5
2023-04-04T10:46:00.880Z,6.6
2023-04-04T10:47:01.511Z,6.5
2023-04-04T10:48:01.168Z,6.4
2023-04-04T10:49:00.720Z,6.3
2023-04-04T10:50:01.343Z,6.2
2023-04-04T10:51:00.942Z,6.2
2023-04-04T10:52:00.552Z,6.2
2023-04-04T10:53:01.118Z,6.3
2023-04-04T10:54:00.725Z,6.4
2023-04-04T10:55:01.316Z,6.5
2023-04-04T10:56:00.909Z,6.4
2023-04-04T10:57:01.543Z,6.4
2023-04-04T10:58:01.168Z,6.4
2023-04-04T10:59:00.758Z,6.6
2023-04-04T11:00:01.338Z,6.6
2023-04-04T11:01:00.764Z,6.5
2023-04-04T11:02:01.481Z,6.7
2023-04-04T11:03:01.131Z,6.6
2023-04-04T11:04:00.666Z,6.6
2023-04-04T11:05:01.241Z,6.7
2023-04-04T11:06:00.836Z,6.8
2023-04-04T11:07:01.440Z,6.9
2023-04-04T11:08:08.036Z,7
2023-04-04T11:09:00.574Z,7
2023-04-04T11:10:01.170Z,7.1
2023-04-04T11:11:05.056Z,7.2
2023-04-04T11:12:01.350Z,7.3
2023-04-04T11:13:09.548Z,7.3
2023-04-04T11:14:01.491Z,6.9
2023-04-04T11:15:01.081Z,6.9
2023-04-04T11:16:00.675Z,6.8
2023-04-04T11:17:01.340Z,6.7
2023-04-04T11:18:01.251Z,6.6
2023-04-04T11:19:01.344Z,6.6
2023-04-04T11:20:00.938Z,6.7
2023-04-04T11:21:00.532Z,6.9
2023-04-04T11:22:01.117Z,7
2023-04-04T11:23:00.706Z,6.9
2023-04-04T11:24:01.314Z,6.9
2023-04-04T11:25:00.921Z,6.9
2023-04-04T11:26:01.524Z,6.8
2023-04-04T11:27:01.131Z,7.1
2023-04-04T11:28:00.828Z,7.1
2023-04-04T11:29:01.315Z,7.3
2023-04-04T11:30:00.913Z,7.1
2023-04-04T11:31:01.512Z,7.2
2023-04-04T11:32:01.140Z,7
2023-04-04T11:33:06.890Z,7.2
2023-04-04T11:34:01.316Z,7.3
2023-04-04T11:35:00.935Z,7.3
2023-04-04T11:36:01.522Z,7.3
2023-04-04T11:37:01.154Z,7.2
2023-04-04T11:38:00.744Z,7.3
2023-04-04T11:39:01.331Z,7.4
2023-04-04T11:40:00.943Z,7.4
2023-04-04T11:41:01.503Z,7.4
2023-04-04T11:42:01.094Z,7.4
2023-04-04T11:43:00.682Z,7.6
2023-04-04T11:44:01.252Z,7.3
2023-04-04T11:45:00.859Z,7.2
2023-04-04T11:46:01.429Z,7.1
2023-04-04T11:47:01.032Z,7.3
2023-04-04T11:48:00.636Z,7.3
2023-04-04T11:49:01.202Z,7.3
2023-04-04T11:50:00.866Z,7.4
2023-04-04T11:51:01.393Z,7.5
2023-04-04T11:52:00.980Z,7.5
2023-04-04T11:53:00.565Z,7.4
2023-04-04T11:54:01.149Z,7.4
2023-04-04T11:55:00.738Z,7.4
2023-04-04T11:56:01.347Z,7.6
2023-04-04T11:57:00.940Z,7.7
2023-04-04T11:58:00.525Z,7.8
2023-04-04T11:59:08.933Z,7.8
2023-04-04T12:00:00.659Z,7.7
2023-04-04T12:01:01.268Z,7.8
2023-04-04T12:02:00.905Z,7.7
2023-04-04T12:03:01.516Z,7.6
2023-04-04T12:04:01.193Z,7.6
2023-04-04T12:05:00.740Z,7.6
2023-04-04T12:06:01.305Z,7.6
2023-04-04T12:07:00.931Z,7.6
2023-04-04T12:08:01.511Z,7.7
2023-04-04T12:09:01.119Z,7.8
2023-04-04T12:10:00.708Z,7.8
2023-04-04T12:11:01.293Z,7.7
2023-04-04T12:12:00.883Z,7.6
2023-04-04T12:13:01.490Z,7.8
2023-04-04T12:14:01.083Z,8
2023-04-04T12:15:10.713Z,8.1
2023-04-04T12:16:01.231Z,8.1
2023-04-04T12:17:00.844Z,8.1
2023-04-04T12:18:01.540Z,8.1
2023-04-04T12:19:01.089Z,8.2
2023-04-04T12:20:00.657Z,8.3
2023-04-04T12:21:01.240Z,8.2
2023-04-04T12:22:00.857Z,7.9
2023-04-04T12:23:01.434Z,8.1
2023-04-04T12:24:01.063Z,8.2
2023-04-04T12:25:00.610Z,8.3
2023-04-04T12:26:01.191Z,8.3
2023-04-04T12:27:00.779Z,8.2
2023-04-04T12:28:01.362Z,8.2
2023-04-04T12:29:00.970Z,8
2023-04-04T12:30:00.536Z,8
2023-04-04T12:31:01.123Z,8.1
2023-04-04T12:32:00.722Z,8.2
2023-04-04T12:33:01.328Z,8.2
2023-04-04T12:34:00.996Z,8.2
2023-04-04T12:35:00.556Z,8.3
2023-04-04T12:36:01.166Z,8.2
2023-04-04T12:37:00.763Z,8.2
2023-04-04T12:38:01.362Z,8.4
2023-04-04T12:39:00.973Z,8.6
2023-04-04T12:40:00.541Z,8.4
2023-04-04T12:41:01.119Z,8.5
2023-04-04T12:42:00.718Z,8.5
2023-04-04T12:43:01.303Z,8.5
2023-04-04T12:44:00.909Z,8.6
2023-04-04T12:45:01.490Z,8.5
2023-04-04T12:46:01.089Z,8.7
2023-04-04T12:47:00.713Z,8.7
2023-04-04T12:48:01.278Z,8.8
2023-04-04T12:49:00.923Z,8.5
2023-04-04T12:50:01.511Z,8.4
2023-04-04T12:51:01.119Z,8.5
2023-04-04T12:52:00.711Z,8.4
2023-04-04T12:53:18.716Z,8.6
2023-04-04T12:54:00.869Z,8.6
2023-04-04T12:56:01.040Z,8.6
2023-04-04T12:57:00.629Z,8.5
2023-04-04T12:58:01.212Z,8.7
2023-04-04T12:59:00.821Z,8.9
2023-04-04T13:00:01.384Z,9
2023-04-04T13:01:01.067Z,9
2023-04-04T13:02:00.554Z,8.8
2023-04-04T13:03:01.168Z,8.8
2023-04-04T13:04:00.795Z,8.5
2023-04-04T13:05:01.368Z,8.6
2023-04-04T13:06:01.081Z,8.6
2023-04-04T13:07:00.552Z,8.7
2023-04-04T13:08:01.134Z,8.7
2023-04-04T13:09:00.737Z,8.6
2023-04-04T13:10:01.342Z,8.5
2023-04-04T13:11:00.980Z,8.8
2023-04-04T13:12:00.541Z,9.1
2023-04-04T13:13:01.138Z,9.3
2023-04-04T13:14:00.767Z,9.2
2023-04-04T13:15:01.404Z,9
2023-04-04T13:16:01.020Z,8.9
2023-04-04T13:17:00.631Z,8.8
2023-04-04T13:18:01.195Z,8.6
2023-04-04T13:19:00.854Z,8.5
2023-04-04T13:20:01.393Z,8.6
2023-04-04T13:21:01.024Z,8.5
2023-04-04T13:22:00.591Z,8.6
2023-04-04T13:23:01.176Z,8.6
2023-04-04T13:24:00.767Z,8.7
2023-04-04T13:25:01.369Z,8.8
2023-04-04T13:26:01.054Z,9
2023-04-04T13:27:00.564Z,8.9
2023-04-04T13:28:01.129Z,8.9
2023-04-04T13:29:00.728Z,9.1
2023-04-04T13:30:01.324Z,9.1
2023-04-04T13:31:00.964Z,9.1
2023-04-04T13:32:01.493Z,9.2
2023-04-04T13:33:01.166Z,9
2023-04-04T13:34:00.729Z,9
2023-04-04T13:35:01.346Z,9.1
2023-04-04T13:36:00.966Z,9.1
2023-04-04T13:37:00.568Z,8.8
2023-04-04T13:38:01.114Z,8.7
2023-04-04T13:39:00.719Z,8.8
2023-04-04T13:40:01.314Z,8.8
2023-04-04T13:41:00.924Z,9.2
2023-04-04T13:42:01.543Z,8.9